sensor_id;sensor_type;location;lat;lon;timestamp;P1;durP1;ratioP1;P2;durP2;ratioP2
38693;SDS011;24447;43.460;25.744;2023-07-13T00:00:41;23.17;;;11.60;;
38693;SDS011;24447;43.460;25.744;2023-07-13T00:03:08;24.05;;;12.15;;
38693;SDS011;24447;43.460;25.744;2023-07-13T00:05:34;23.20;;;10.48;;
38693;SDS011;24447;43.460;25.744;2023-07-13T00:08:00;19.35;;;10.85;;
38693;SDS011;24447;43.460;25.744;2023-07-13T00:10:26;20.55;;;10.27;;
38693;SDS011;24447;43.460;25.744;2023-07-13T00:12:52;22.27;;;10.63;;
38693;SDS011;24447;43.460;25.744;2023-07-13T00:15:21;21.73;;;10.80;;
38693;SDS011;24447;43.460;25.744;2023-07-13T00:17:49;22.70;;;10.65;;
38693;SDS011;24447;43.460;25.744;2023-07-13T00:20:16;25.98;;;10.90;;
38693;SDS011;24447;43.460;25.744;2023-07-13T00:22:42;22.20;;;11.13;;
38693;SDS011;24447;43.460;25.744;2023-07-13T00:25:11;24.27;;;10.32;;
38693;SDS011;24447;43.460;25.744;2023-07-13T00:27:37;20.98;;;11.02;;
38693;SDS011;24447;43.460;25.744;2023-07-13T00:30:03;19.95;;;9.90;;
38693;SDS011;24447;43.460;25.744;2023-07-13T00:32:30;19.95;;;10.38;;
38693;SDS011;24447;43.460;25.744;2023-07-13T00:34:56;20.92;;;11.40;;
38693;SDS011;24447;43.460;25.744;2023-07-13T00:37:24;27.13;;;10.95;;
38693;SDS011;24447;43.460;25.744;2023-07-13T00:39:50;24.33;;;10.48;;
38693;SDS011;24447;43.460;25.744;2023-07-13T00:42:16;24.20;;;11.18;;
38693;SDS011;24447;43.460;25.744;2023-07-13T00:45:00;20.80;;;11.18;;
38693;SDS011;24447;43.460;25.744;2023-07-13T00:47:27;20.67;;;10.23;;
38693;SDS011;24447;43.460;25.744;2023-07-13T00:49:52;23.90;;;11.95;;
38693;SDS011;24447;43.460;25.744;2023-07-13T00:52:18;20.30;;;11.00;;
38693;SDS011;24447;43.460;25.744;2023-07-13T00:54:45;19.63;;;10.35;;
38693;SDS011;24447;43.460;25.744;2023-07-13T00:57:16;23.88;;;11.52;;
38693;SDS011;24447;43.460;25.744;2023-07-13T00:59:45;22.75;;;10.90;;
38693;SDS011;24447;43.460;25.744;2023-07-13T01:02:13;19.85;;;9.93;;
38693;SDS011;24447;43.460;25.744;2023-07-13T01:04:39;20.63;;;11.00;;
38693;SDS011;24447;43.460;25.744;2023-07-13T01:07:08;21.85;;;11.70;;
38693;SDS011;24447;43.460;25.744;2023-07-13T01:09:34;21.83;;;11.20;;
38693;SDS011;24447;43.460;25.744;2023-07-13T01:12:00;21.58;;;10.95;;
38693;SDS011;24447;43.460;25.744;2023-07-13T01:14:27;20.77;;;11.18;;
38693;SDS011;24447;43.460;25.744;2023-07-13T01:16:52;18.88;;;10.15;;
38693;SDS011;24447;43.460;25.744;2023-07-13T01:19:36;20.85;;;10.57;;
38693;SDS011;24447;43.460;25.744;2023-07-13T01:22:08;20.05;;;10.30;;
38693;SDS011;24447;43.460;25.744;2023-07-13T01:24:36;19.02;;;10.77;;
38693;SDS011;24447;43.460;25.744;2023-07-13T01:27:04;28.73;;;10.45;;
38693;SDS011;24447;43.460;25.744;2023-07-13T01:29:31;20.48;;;10.55;;
38693;SDS011;24447;43.460;25.744;2023-07-13T01:31:58;24.17;;;10.98;;
38693;SDS011;24447;43.460;25.744;2023-07-13T01:34:25;21.60;;;10.90;;
38693;SDS011;24447;43.460;25.744;2023-07-13T01:36:52;24.50;;;11.00;;
38693;SDS011;24447;43.460;25.744;2023-07-13T01:39:20;20.65;;;9.65;;
38693;SDS011;24447;43.460;25.744;2023-07-13T01:41:47;20.55;;;9.85;;
38693;SDS011;24447;43.460;25.744;2023-07-13T01:44:12;25.05;;;10.55;;
38693;SDS011;24447;43.460;25.744;2023-07-13T01:46:39;19.30;;;10.07;;
38693;SDS011;24447;43.460;25.744;2023-07-13T01:49:04;20.67;;;10.70;;
38693;SDS011;24447;43.460;25.744;2023-07-13T01:51:31;19.83;;;9.95;;
38693;SDS011;24447;43.460;25.744;2023-07-13T01:53:57;23.27;;;10.77;;
38693;SDS011;24447;43.460;25.744;2023-07-13T01:56:22;23.23;;;10.93;;
38693;SDS011;24447;43.460;25.744;2023-07-13T01:58:48;22.45;;;11.35;;
38693;SDS011;24447;43.460;25.744;2023-07-13T02:01:14;23.02;;;10.25;;
38693;SDS011;24447;43.460;25.744;2023-07-13T02:03:40;21.73;;;10.27;;
38693;SDS011;24447;43.460;25.744;2023-07-13T02:06:06;23.05;;;10.98;;
38693;SDS011;24447;43.460;25.744;2023-07-13T02:08:32;20.83;;;9.88;;
38693;SDS011;24447;43.460;25.744;2023-07-13T02:10:59;22.42;;;11.30;;
38693;SDS011;24447;43.460;25.744;2023-07-13T02:13:25;20.13;;;10.13;;
38693;SDS011;24447;43.460;25.744;2023-07-13T02:15:51;20.15;;;9.88;;
38693;SDS011;24447;43.460;25.744;2023-07-13T02:18:17;20.38;;;10.50;;
38693;SDS011;24447;43.460;25.744;2023-07-13T02:20:43;19.38;;;9.90;;
38693;SDS011;24447;43.460;25.744;2023-07-13T02:23:10;22.27;;;10.50;;
38693;SDS011;24447;43.460;25.744;2023-07-13T02:25:36;26.42;;;11.85;;
38693;SDS011;24447;43.460;25.744;2023-07-13T02:28:02;19.75;;;10.43;;
38693;SDS011;24447;43.460;25.744;2023-07-13T02:30:28;20.35;;;10.27;;
38693;SDS011;24447;43.460;25.744;2023-07-13T02:32:55;22.08;;;10.73;;
38693;SDS011;24447;43.460;25.744;2023-07-13T02:35:21;22.73;;;11.68;;
38693;SDS011;24447;43.460;25.744;2023-07-13T02:37:47;21.23;;;9.82;;
38693;SDS011;24447;43.460;25.744;2023-07-13T02:40:14;21.23;;;11.45;;
38693;SDS011;24447;43.460;25.744;2023-07-13T02:42:40;26.08;;;10.68;;
38693;SDS011;24447;43.460;25.744;2023-07-13T02:45:07;23.38;;;10.10;;
38693;SDS011;24447;43.460;25.744;2023-07-13T02:47:33;23.52;;;11.13;;
38693;SDS011;24447;43.460;25.744;2023-07-13T02:49:59;20.35;;;10.40;;
38693;SDS011;24447;43.460;25.744;2023-07-13T02:52:26;21.83;;;11.60;;
38693;SDS011;24447;43.460;25.744;2023-07-13T02:54:52;19.60;;;9.88;;
38693;SDS011;24447;43.460;25.744;2023-07-13T02:57:18;22.55;;;10.95;;
38693;SDS011;24447;43.460;25.744;2023-07-13T02:59:44;21.65;;;10.10;;
38693;SDS011;24447;43.460;25.744;2023-07-13T03:02:10;23.67;;;11.18;;
38693;SDS011;24447;43.460;25.744;2023-07-13T03:04:36;20.63;;;9.63;;
38693;SDS011;24447;43.460;25.744;2023-07-13T03:07:03;26.05;;;10.98;;
38693;SDS011;24447;43.460;25.744;2023-07-13T03:09:30;22.50;;;10.48;;
38693;SDS011;24447;43.460;25.744;2023-07-13T03:11:56;20.67;;;10.30;;
38693;SDS011;24447;43.460;25.744;2023-07-13T03:14:22;20.42;;;10.82;;
38693;SDS011;24447;43.460;25.744;2023-07-13T03:16:49;21.95;;;10.52;;
38693;SDS011;24447;43.460;25.744;2023-07-13T03:19:15;23.98;;;11.30;;
38693;SDS011;24447;43.460;25.744;2023-07-13T03:21:41;23.25;;;11.95;;
38693;SDS011;24447;43.460;25.744;2023-07-13T03:24:07;24.33;;;11.13;;
38693;SDS011;24447;43.460;25.744;2023-07-13T03:26:33;21.75;;;12.07;;
38693;SDS011;24447;43.460;25.744;2023-07-13T03:28:59;19.42;;;9.77;;
38693;SDS011;24447;43.460;25.744;2023-07-13T03:31:26;19.40;;;9.88;;
38693;SDS011;24447;43.460;25.744;2023-07-13T03:33:54;21.25;;;10.20;;
38693;SDS011;24447;43.460;25.744;2023-07-13T03:36:22;19.30;;;9.60;;
38693;SDS011;24447;43.460;25.744;2023-07-13T03:38:50;21.70;;;11.05;;
38693;SDS011;24447;43.460;25.744;2023-07-13T03:41:21;20.95;;;9.80;;
38693;SDS011;24447;43.460;25.744;2023-07-13T03:43:48;20.40;;;9.73;;
38693;SDS011;24447;43.460;25.744;2023-07-13T03:46:14;20.90;;;10.68;;
38693;SDS011;24447;43.460;25.744;2023-07-13T03:48:41;19.83;;;9.10;;
38693;SDS011;24447;43.460;25.744;2023-07-13T03:51:09;19.77;;;8.25;;
38693;SDS011;24447;43.460;25.744;2023-07-13T03:53:39;20.63;;;8.77;;
38693;SDS011;24447;43.460;25.744;2023-07-13T03:56:09;23.08;;;10.10;;
38693;SDS011;24447;43.460;25.744;2023-07-13T03:58:39;21.45;;;8.68;;
38693;SDS011;24447;43.460;25.744;2023-07-13T04:03:32;22.05;;;8.10;;
38693;SDS011;24447;43.460;25.744;2023-07-13T04:05:59;17.35;;;7.47;;
38693;SDS011;24447;43.460;25.744;2023-07-13T04:08:30;15.98;;;7.43;;
38693;SDS011;24447;43.460;25.744;2023-07-13T04:10:58;25.92;;;9.73;;
38693;SDS011;24447;43.460;25.744;2023-07-13T04:13:24;15.02;;;7.32;;
38693;SDS011;24447;43.460;25.744;2023-07-13T04:15:51;18.30;;;7.07;;
38693;SDS011;24447;43.460;25.744;2023-07-13T04:18:18;20.00;;;8.23;;
38693;SDS011;24447;43.460;25.744;2023-07-13T04:20:47;18.92;;;7.63;;
38693;SDS011;24447;43.460;25.744;2023-07-13T04:23:14;13.75;;;6.50;;
38693;SDS011;24447;43.460;25.744;2023-07-13T04:25:44;16.48;;;8.02;;
38693;SDS011;24447;43.460;25.744;2023-07-13T04:28:11;19.92;;;8.07;;
38693;SDS011;24447;43.460;25.744;2023-07-13T04:30:37;17.38;;;8.15;;
38693;SDS011;24447;43.460;25.744;2023-07-13T04:33:03;15.95;;;7.07;;
38693;SDS011;24447;43.460;25.744;2023-07-13T04:35:29;18.20;;;7.25;;
38693;SDS011;24447;43.460;25.744;2023-07-13T04:37:56;16.58;;;7.93;;
38693;SDS011;24447;43.460;25.744;2023-07-13T04:40:22;18.98;;;7.90;;
38693;SDS011;24447;43.460;25.744;2023-07-13T04:42:48;28.05;;;13.07;;
38693;SDS011;24447;43.460;25.744;2023-07-13T04:45:14;17.08;;;8.98;;
38693;SDS011;24447;43.460;25.744;2023-07-13T04:47:40;16.75;;;7.43;;
38693;SDS011;24447;43.460;25.744;2023-07-13T04:50:07;14.75;;;6.82;;
38693;SDS011;24447;43.460;25.744;2023-07-13T04:52:35;17.00;;;8.07;;
38693;SDS011;24447;43.460;25.744;2023-07-13T04:55:02;16.27;;;7.60;;
38693;SDS011;24447;43.460;25.744;2023-07-13T04:57:28;15.05;;;7.95;;
38693;SDS011;24447;43.460;25.744;2023-07-13T04:59:54;17.73;;;8.13;;
38693;SDS011;24447;43.460;25.744;2023-07-13T05:02:20;18.52;;;8.52;;
38693;SDS011;24447;43.460;25.744;2023-07-13T05:04:47;16.92;;;7.15;;
38693;SDS011;24447;43.460;25.744;2023-07-13T05:07:13;13.35;;;7.35;;
38693;SDS011;24447;43.460;25.744;2023-07-13T05:09:39;17.90;;;7.93;;
38693;SDS011;24447;43.460;25.744;2023-07-13T05:12:06;17.92;;;8.15;;
38693;SDS011;24447;43.460;25.744;2023-07-13T05:14:33;18.50;;;8.17;;
38693;SDS011;24447;43.460;25.744;2023-07-13T05:16:59;17.00;;;7.72;;
38693;SDS011;24447;43.460;25.744;2023-07-13T05:19:25;15.82;;;7.38;;
38693;SDS011;24447;43.460;25.744;2023-07-13T05:21:51;17.58;;;7.53;;
38693;SDS011;24447;43.460;25.744;2023-07-13T05:24:17;17.48;;;7.28;;
38693;SDS011;24447;43.460;25.744;2023-07-13T05:26:43;19.00;;;8.48;;
38693;SDS011;24447;43.460;25.744;2023-07-13T05:29:10;17.75;;;7.38;;
38693;SDS011;24447;43.460;25.744;2023-07-13T05:31:36;14.13;;;7.30;;
38693;SDS011;24447;43.460;25.744;2023-07-13T05:34:02;16.33;;;8.23;;
38693;SDS011;24447;43.460;25.744;2023-07-13T05:36:28;22.15;;;8.25;;
38693;SDS011;24447;43.460;25.744;2023-07-13T05:38:53;21.00;;;7.97;;
38693;SDS011;24447;43.460;25.744;2023-07-13T05:41:19;26.48;;;8.32;;
38693;SDS011;24447;43.460;25.744;2023-07-13T05:43:45;20.48;;;9.80;;
38693;SDS011;24447;43.460;25.744;2023-07-13T05:46:11;19.77;;;9.68;;
38693;SDS011;24447;43.460;25.744;2023-07-13T05:48:37;21.08;;;8.63;;
38693;SDS011;24447;43.460;25.744;2023-07-13T05:51:03;20.88;;;9.05;;
38693;SDS011;24447;43.460;25.744;2023-07-13T05:53:29;17.25;;;9.15;;
38693;SDS011;24447;43.460;25.744;2023-07-13T05:55:55;15.98;;;8.70;;
38693;SDS011;24447;43.460;25.744;2023-07-13T05:58:21;16.85;;;7.80;;
38693;SDS011;24447;43.460;25.744;2023-07-13T06:00:47;17.80;;;8.85;;
38693;SDS011;24447;43.460;25.744;2023-07-13T06:03:14;18.20;;;8.30;;
38693;SDS011;24447;43.460;25.744;2023-07-13T06:05:41;16.00;;;7.82;;
38693;SDS011;24447;43.460;25.744;2023-07-13T06:08:07;15.15;;;8.00;;
38693;SDS011;24447;43.460;25.744;2023-07-13T06:10:33;17.60;;;8.65;;
38693;SDS011;24447;43.460;25.744;2023-07-13T06:13:01;14.70;;;8.20;;
38693;SDS011;24447;43.460;25.744;2023-07-13T06:15:28;17.88;;;8.98;;
38693;SDS011;24447;43.460;25.744;2023-07-13T06:17:54;17.35;;;7.50;;
38693;SDS011;24447;43.460;25.744;2023-07-13T06:20:20;18.08;;;7.70;;
38693;SDS011;24447;43.460;25.744;2023-07-13T06:22:46;13.80;;;7.50;;
38693;SDS011;24447;43.460;25.744;2023-07-13T06:25:11;17.02;;;7.78;;
38693;SDS011;24447;43.460;25.744;2023-07-13T06:27:37;15.52;;;7.85;;
38693;SDS011;24447;43.460;25.744;2023-07-13T06:30:03;17.52;;;8.60;;
38693;SDS011;24447;43.460;25.744;2023-07-13T06:32:30;20.17;;;8.57;;
38693;SDS011;24447;43.460;25.744;2023-07-13T06:34:56;16.23;;;8.82;;
38693;SDS011;24447;43.460;25.744;2023-07-13T06:37:21;13.85;;;7.85;;
38693;SDS011;24447;43.460;25.744;2023-07-13T06:39:47;19.60;;;8.90;;
38693;SDS011;24447;43.460;25.744;2023-07-13T06:42:13;15.20;;;7.60;;
38693;SDS011;24447;43.460;25.744;2023-07-13T06:44:39;16.90;;;7.80;;
38693;SDS011;24447;43.460;25.744;2023-07-13T06:47:05;16.85;;;8.13;;
38693;SDS011;24447;43.460;25.744;2023-07-13T06:49:31;16.38;;;8.65;;
38693;SDS011;24447;43.460;25.744;2023-07-13T06:51:57;24.20;;;8.82;;
38693;SDS011;24447;43.460;25.744;2023-07-13T06:54:23;14.52;;;8.18;;
38693;SDS011;24447;43.460;25.744;2023-07-13T06:56:50;13.20;;;7.80;;
38693;SDS011;24447;43.460;25.744;2023-07-13T06:59:16;19.65;;;8.23;;
38693;SDS011;24447;43.460;25.744;2023-07-13T07:01:41;14.00;;;7.55;;
38693;SDS011;24447;43.460;25.744;2023-07-13T07:04:07;13.63;;;6.70;;
38693;SDS011;24447;43.460;25.744;2023-07-13T07:06:33;14.35;;;7.28;;
38693;SDS011;24447;43.460;25.744;2023-07-13T07:08:59;14.27;;;7.20;;
38693;SDS011;24447;43.460;25.744;2023-07-13T07:11:25;16.67;;;7.97;;
38693;SDS011;24447;43.460;25.744;2023-07-13T07:13:52;19.88;;;8.43;;
38693;SDS011;24447;43.460;25.744;2023-07-13T07:16:18;12.75;;;6.95;;
38693;SDS011;24447;43.460;25.744;2023-07-13T07:18:45;16.15;;;7.10;;
38693;SDS011;24447;43.460;25.744;2023-07-13T07:21:12;12.38;;;7.03;;
38693;SDS011;24447;43.460;25.744;2023-07-13T07:23:38;14.00;;;6.57;;
38693;SDS011;24447;43.460;25.744;2023-07-13T07:26:04;12.32;;;6.35;;
38693;SDS011;24447;43.460;25.744;2023-07-13T07:28:30;16.65;;;6.60;;
38693;SDS011;24447;43.460;25.744;2023-07-13T07:30:57;10.85;;;5.55;;
38693;SDS011;24447;43.460;25.744;2023-07-13T07:33:23;13.15;;;5.75;;
38693;SDS011;24447;43.460;25.744;2023-07-13T07:35:50;10.73;;;5.70;;
38693;SDS011;24447;43.460;25.744;2023-07-13T07:38:16;10.43;;;5.65;;
38693;SDS011;24447;43.460;25.744;2023-07-13T07:40:42;9.35;;;5.35;;
38693;SDS011;24447;43.460;25.744;2023-07-13T07:43:09;13.30;;;5.65;;
38693;SDS011;24447;43.460;25.744;2023-07-13T07:45:36;9.60;;;5.53;;
38693;SDS011;24447;43.460;25.744;2023-07-13T07:48:04;10.95;;;5.68;;
38693;SDS011;24447;43.460;25.744;2023-07-13T07:50:30;12.25;;;5.32;;
38693;SDS011;24447;43.460;25.744;2023-07-13T07:52:56;12.98;;;5.68;;
38693;SDS011;24447;43.460;25.744;2023-07-13T07:55:22;10.18;;;5.68;;
38693;SDS011;24447;43.460;25.744;2023-07-13T07:57:50;10.38;;;5.40;;
38693;SDS011;24447;43.460;25.744;2023-07-13T08:00:17;12.25;;;6.13;;
38693;SDS011;24447;43.460;25.744;2023-07-13T08:02:43;14.80;;;6.32;;
38693;SDS011;24447;43.460;25.744;2023-07-13T08:05:09;15.73;;;6.20;;
38693;SDS011;24447;43.460;25.744;2023-07-13T08:07:36;11.20;;;6.45;;
38693;SDS011;24447;43.460;25.744;2023-07-13T08:10:03;12.10;;;6.38;;
38693;SDS011;24447;43.460;25.744;2023-07-13T08:12:33;14.13;;;6.43;;
38693;SDS011;24447;43.460;25.744;2023-07-13T08:14:59;12.07;;;6.45;;
38693;SDS011;24447;43.460;25.744;2023-07-13T08:17:26;13.82;;;6.18;;
38693;SDS011;24447;43.460;25.744;2023-07-13T08:19:52;13.82;;;6.35;;
38693;SDS011;24447;43.460;25.744;2023-07-13T08:22:18;9.65;;;6.03;;
38693;SDS011;24447;43.460;25.744;2023-07-13T08:24:44;13.02;;;5.75;;
38693;SDS011;24447;43.460;25.744;2023-07-13T08:27:10;13.95;;;6.40;;
38693;SDS011;24447;43.460;25.744;2023-07-13T08:29:37;12.48;;;6.05;;
38693;SDS011;24447;43.460;25.744;2023-07-13T08:32:06;12.52;;;6.55;;
38693;SDS011;24447;43.460;25.744;2023-07-13T08:34:34;12.77;;;6.25;;
38693;SDS011;24447;43.460;25.744;2023-07-13T08:37:01;15.38;;;6.05;;
38693;SDS011;24447;43.460;25.744;2023-07-13T08:39:28;13.70;;;6.22;;
38693;SDS011;24447;43.460;25.744;2023-07-13T08:41:57;13.73;;;5.95;;
38693;SDS011;24447;43.460;25.744;2023-07-13T08:47:15;14.20;;;6.60;;
38693;SDS011;24447;43.460;25.744;2023-07-13T08:49:41;16.38;;;5.90;;
38693;SDS011;24447;43.460;25.744;2023-07-13T08:54:41;11.60;;;5.60;;
38693;SDS011;24447;43.460;25.744;2023-07-13T08:57:14;14.68;;;6.38;;
38693;SDS011;24447;43.460;25.744;2023-07-13T08:59:41;11.90;;;5.68;;
38693;SDS011;24447;43.460;25.744;2023-07-13T09:18:00;11.05;;;5.93;;
38693;SDS011;24447;43.460;25.744;2023-07-13T09:20:34;9.88;;;6.15;;
38693;SDS011;24447;43.460;25.744;2023-07-13T09:23:03;9.98;;;5.47;;
38693;SDS011;24447;43.460;25.744;2023-07-13T09:25:32;18.08;;;7.05;;
38693;SDS011;24447;43.460;25.744;2023-07-13T09:30:38;14.93;;;6.57;;
38693;SDS011;24447;43.460;25.744;2023-07-13T09:33:10;10.10;;;5.60;;
38693;SDS011;24447;43.460;25.744;2023-07-13T09:35:36;10.60;;;6.15;;
38693;SDS011;24447;43.460;25.744;2023-07-13T09:40:40;13.15;;;6.07;;
38693;SDS011;24447;43.460;25.744;2023-07-13T09:43:10;13.00;;;6.13;;
38693;SDS011;24447;43.460;25.744;2023-07-13T09:45:39;11.57;;;5.32;;
38693;SDS011;24447;43.460;25.744;2023-07-13T09:48:14;20.73;;;6.20;;
38693;SDS011;24447;43.460;25.744;2023-07-13T09:50:41;13.57;;;6.22;;
38693;SDS011;24447;43.460;25.744;2023-07-13T09:53:18;10.20;;;5.47;;
38693;SDS011;24447;43.460;25.744;2023-07-13T09:55:45;10.45;;;4.85;;
38693;SDS011;24447;43.460;25.744;2023-07-13T10:00:55;10.77;;;5.47;;
38693;SDS011;24447;43.460;25.744;2023-07-13T10:03:33;14.75;;;5.30;;
38693;SDS011;24447;43.460;25.744;2023-07-13T10:06:11;13.38;;;5.75;;
38693;SDS011;24447;43.460;25.744;2023-07-13T10:08:38;12.32;;;5.15;;
38693;SDS011;24447;43.460;25.744;2023-07-13T10:11:18;11.27;;;5.47;;
38693;SDS011;24447;43.460;25.744;2023-07-13T10:14:01;20.08;;;7.05;;
38693;SDS011;24447;43.460;25.744;2023-07-13T10:16:30;15.25;;;5.40;;
38693;SDS011;24447;43.460;25.744;2023-07-13T10:21:38;13.82;;;5.57;;
38693;SDS011;24447;43.460;25.744;2023-07-13T10:26:37;9.52;;;5.53;;
38693;SDS011;24447;43.460;25.744;2023-07-13T10:29:12;13.27;;;5.60;;
38693;SDS011;24447;43.460;25.744;2023-07-13T10:31:39;12.55;;;4.80;;
38693;SDS011;24447;43.460;25.744;2023-07-13T10:34:09;10.10;;;5.18;;
38693;SDS011;24447;43.460;25.744;2023-07-13T10:36:48;13.07;;;4.28;;
38693;SDS011;24447;43.460;25.744;2023-07-13T10:39:21;7.57;;;4.25;;
38693;SDS011;24447;43.460;25.744;2023-07-13T10:42:11;11.15;;;4.57;;
38693;SDS011;24447;43.460;25.744;2023-07-13T10:44:37;16.05;;;5.10;;
38693;SDS011;24447;43.460;25.744;2023-07-13T10:47:04;10.50;;;5.55;;
38693;SDS011;24447;43.460;25.744;2023-07-13T10:49:33;7.20;;;3.97;;
38693;SDS011;24447;43.460;25.744;2023-07-13T10:52:00;13.00;;;4.53;;
38693;SDS011;24447;43.460;25.744;2023-07-13T10:57:17;12.88;;;4.65;;
38693;SDS011;24447;43.460;25.744;2023-07-13T10:59:46;8.70;;;4.75;;
38693;SDS011;24447;43.460;25.744;2023-07-13T11:02:28;10.60;;;4.80;;
38693;SDS011;24447;43.460;25.744;2023-07-13T11:04:54;11.73;;;4.63;;
38693;SDS011;24447;43.460;25.744;2023-07-13T11:07:24;10.15;;;5.05;;
38693;SDS011;24447;43.460;25.744;2023-07-13T11:09:53;7.90;;;4.82;;
38693;SDS011;24447;43.460;25.744;2023-07-13T11:19:53;13.25;;;4.78;;
38693;SDS011;24447;43.460;25.744;2023-07-13T11:22:24;12.27;;;4.82;;
38693;SDS011;24447;43.460;25.744;2023-07-13T11:27:21;12.10;;;6.03;;
38693;SDS011;24447;43.460;25.744;2023-07-13T11:29:50;11.23;;;5.13;;
38693;SDS011;24447;43.460;25.744;2023-07-13T11:32:34;10.43;;;4.72;;
38693;SDS011;24447;43.460;25.744;2023-07-13T11:35:01;10.23;;;4.68;;
38693;SDS011;24447;43.460;25.744;2023-07-13T11:37:27;9.60;;;4.68;;
38693;SDS011;24447;43.460;25.744;2023-07-13T11:39:54;10.80;;;4.13;;
38693;SDS011;24447;43.460;25.744;2023-07-13T11:42:21;14.52;;;5.13;;
38693;SDS011;24447;43.460;25.744;2023-07-13T11:44:48;12.98;;;4.22;;
38693;SDS011;24447;43.460;25.744;2023-07-13T11:47:20;10.85;;;4.35;;
38693;SDS011;24447;43.460;25.744;2023-07-13T11:49:50;10.43;;;4.65;;
38693;SDS011;24447;43.460;25.744;2023-07-13T11:52:22;8.75;;;4.35;;
38693;SDS011;24447;43.460;25.744;2023-07-13T11:54:50;14.52;;;4.28;;
38693;SDS011;24447;43.460;25.744;2023-07-13T11:59:56;11.00;;;4.03;;
38693;SDS011;24447;43.460;25.744;2023-07-13T12:04:59;12.90;;;5.03;;
38693;SDS011;24447;43.460;25.744;2023-07-13T12:07:28;8.25;;;4.00;;
38693;SDS011;24447;43.460;25.744;2023-07-13T12:10:02;17.43;;;4.87;;
38693;SDS011;24447;43.460;25.744;2023-07-13T12:12:29;8.70;;;4.85;;
38693;SDS011;24447;43.460;25.744;2023-07-13T12:14:55;13.82;;;4.50;;
38693;SDS011;24447;43.460;25.744;2023-07-13T12:17:22;10.32;;;4.35;;
38693;SDS011;24447;43.460;25.744;2023-07-13T12:19:49;11.25;;;4.68;;
38693;SDS011;24447;43.460;25.744;2023-07-13T12:22:17;12.80;;;4.63;;
38693;SDS011;24447;43.460;25.744;2023-07-13T12:24:44;9.15;;;4.63;;
38693;SDS011;24447;43.460;25.744;2023-07-13T12:27:21;11.45;;;4.57;;
38693;SDS011;24447;43.460;25.744;2023-07-13T12:30:01;7.30;;;3.75;;
38693;SDS011;24447;43.460;25.744;2023-07-13T12:32:30;16.90;;;5.43;;
38693;SDS011;24447;43.460;25.744;2023-07-13T12:35:01;11.52;;;4.65;;
38693;SDS011;24447;43.460;25.744;2023-07-13T12:37:40;8.70;;;5.03;;
38693;SDS011;24447;43.460;25.744;2023-07-13T12:40:12;8.93;;;4.20;;
38693;SDS011;24447;43.460;25.744;2023-07-13T12:42:40;12.70;;;4.32;;
38693;SDS011;24447;43.460;25.744;2023-07-13T12:45:17;12.88;;;4.70;;
38693;SDS011;24447;43.460;25.744;2023-07-13T12:47:47;9.63;;;3.97;;
38693;SDS011;24447;43.460;25.744;2023-07-13T12:50:18;10.90;;;5.25;;
38693;SDS011;24447;43.460;25.744;2023-07-13T12:52:51;13.73;;;4.70;;
38693;SDS011;24447;43.460;25.744;2023-07-13T12:55:18;11.65;;;4.90;;
38693;SDS011;24447;43.460;25.744;2023-07-13T12:57:53;8.00;;;4.35;;
38693;SDS011;24447;43.460;25.744;2023-07-13T13:00:33;10.55;;;4.60;;
38693;SDS011;24447;43.460;25.744;2023-07-13T13:03:07;10.38;;;4.45;;
38693;SDS011;24447;43.460;25.744;2023-07-13T13:05:38;13.20;;;4.50;;
38693;SDS011;24447;43.460;25.744;2023-07-13T13:08:04;9.90;;;4.43;;
38693;SDS011;24447;43.460;25.744;2023-07-13T13:10:30;13.43;;;4.72;;
38693;SDS011;24447;43.460;25.744;2023-07-13T13:12:56;9.75;;;4.10;;
38693;SDS011;24447;43.460;25.744;2023-07-13T13:15:22;12.05;;;4.13;;
38693;SDS011;24447;43.460;25.744;2023-07-13T13:17:48;14.80;;;4.90;;
38693;SDS011;24447;43.460;25.744;2023-07-13T13:20:18;8.90;;;4.63;;
38693;SDS011;24447;43.460;25.744;2023-07-13T13:22:46;9.13;;;4.10;;
38693;SDS011;24447;43.460;25.744;2023-07-13T13:25:12;8.73;;;4.28;;
38693;SDS011;24447;43.460;25.744;2023-07-13T13:27:40;7.70;;;4.15;;
38693;SDS011;24447;43.460;25.744;2023-07-13T13:30:17;10.38;;;4.15;;
38693;SDS011;24447;43.460;25.744;2023-07-13T13:32:44;15.20;;;4.57;;
38693;SDS011;24447;43.460;25.744;2023-07-13T13:37:42;13.52;;;6.07;;
38693;SDS011;24447;43.460;25.744;2023-07-13T13:40:16;10.65;;;4.93;;
38693;SDS011;24447;43.460;25.744;2023-07-13T13:42:44;12.57;;;4.60;;
38693;SDS011;24447;43.460;25.744;2023-07-13T13:45:10;16.95;;;4.47;;
38693;SDS011;24447;43.460;25.744;2023-07-13T13:47:37;14.00;;;4.80;;
38693;SDS011;24447;43.460;25.744;2023-07-13T13:50:14;16.13;;;4.93;;
38693;SDS011;24447;43.460;25.744;2023-07-13T13:52:46;9.57;;;3.72;;
38693;SDS011;24447;43.460;25.744;2023-07-13T13:55:13;7.30;;;3.75;;
38693;SDS011;24447;43.460;25.744;2023-07-13T13:57:40;12.30;;;3.53;;
38693;SDS011;24447;43.460;25.744;2023-07-13T14:00:08;13.90;;;5.43;;
38693;SDS011;24447;43.460;25.744;2023-07-13T14:02:39;9.65;;;4.18;;
38693;SDS011;24447;43.460;25.744;2023-07-13T14:05:06;10.90;;;4.35;;
38693;SDS011;24447;43.460;25.744;2023-07-13T14:07:32;14.93;;;5.55;;
38693;SDS011;24447;43.460;25.744;2023-07-13T14:09:58;8.85;;;4.13;;
38693;SDS011;24447;43.460;25.744;2023-07-13T14:12:26;11.55;;;4.28;;
38693;SDS011;24447;43.460;25.744;2023-07-13T14:14:54;10.43;;;4.13;;
38693;SDS011;24447;43.460;25.744;2023-07-13T14:17:21;11.05;;;4.50;;
38693;SDS011;24447;43.460;25.744;2023-07-13T14:19:50;10.48;;;4.50;;
38693;SDS011;24447;43.460;25.744;2023-07-13T14:22:21;8.45;;;4.10;;
38693;SDS011;24447;43.460;25.744;2023-07-13T14:24:47;11.07;;;4.25;;
38693;SDS011;24447;43.460;25.744;2023-07-13T14:27:14;11.90;;;4.78;;
38693;SDS011;24447;43.460;25.744;2023-07-13T14:29:40;12.50;;;4.22;;
38693;SDS011;24447;43.460;25.744;2023-07-13T14:32:15;12.07;;;4.95;;
38693;SDS011;24447;43.460;25.744;2023-07-13T14:34:41;13.63;;;4.30;;
38693;SDS011;24447;43.460;25.744;2023-07-13T14:37:11;10.15;;;4.55;;
38693;SDS011;24447;43.460;25.744;2023-07-13T14:39:39;11.60;;;4.20;;
38693;SDS011;24447;43.460;25.744;2023-07-13T14:42:08;13.60;;;4.90;;
38693;SDS011;24447;43.460;25.744;2023-07-13T14:44:34;7.82;;;4.05;;
38693;SDS011;24447;43.460;25.744;2023-07-13T14:47:01;8.18;;;3.92;;
38693;SDS011;24447;43.460;25.744;2023-07-13T14:49:36;13.55;;;4.70;;
38693;SDS011;24447;43.460;25.744;2023-07-13T14:52:10;11.77;;;4.45;;
38693;SDS011;24447;43.460;25.744;2023-07-13T14:54:39;12.30;;;4.97;;
38693;SDS011;24447;43.460;25.744;2023-07-13T14:57:15;8.98;;;3.83;;
38693;SDS011;24447;43.460;25.744;2023-07-13T14:59:43;9.07;;;4.50;;
38693;SDS011;24447;43.460;25.744;2023-07-13T15:05:00;11.65;;;4.13;;
38693;SDS011;24447;43.460;25.744;2023-07-13T15:07:27;12.05;;;4.45;;
38693;SDS011;24447;43.460;25.744;2023-07-13T15:09:53;11.15;;;4.68;;
38693;SDS011;24447;43.460;25.744;2023-07-13T15:12:19;16.30;;;4.55;;
38693;SDS011;24447;43.460;25.744;2023-07-13T15:14:45;12.45;;;4.25;;
38693;SDS011;24447;43.460;25.744;2023-07-13T15:17:26;17.30;;;4.70;;
38693;SDS011;24447;43.460;25.744;2023-07-13T15:19:57;14.55;;;5.60;;
38693;SDS011;24447;43.460;25.744;2023-07-13T15:22:24;16.35;;;4.03;;
38693;SDS011;24447;43.460;25.744;2023-07-13T15:24:49;12.95;;;4.25;;